Tiempo atmosférico en la estación meteorológica de San Bartolome Tirajana, El Matorral, Las Palmas (41 m.)



Fecha
DESCASC
Temp. máxima en grados centígrados (hora)
DESCASC
Temp. mínima en grados centígrados (hora)
DESCASC
Temp. media en grados centígrados
DESCASC
Racha de viento máxima en m/sg (hora)
DESCASC
Velocidad máxima media en intervalos de 10 minutos(hora)
DESCASC
Precipitaciones diarias en mm
DESCASC
Precipitaciones de 00:00 a 06:00 en mm
DESCASC
Precipitaciones de 06:00 a 12:00 en mm
DESCASC
Precipitaciones de 12:00 a 18:00 en mm
DESCASC
Precipitaciones de 18:00 a 24:00 en mm
DESCASC
08-12-2019 21.7 (13:50) 17.3 (06:30) 19.5 13.33 (16:30) 8.06 (16:30) 0 0 0 0 0
07-12-2019 22.2 (13:00) 16.6 (05:10) 19.4 13.89 (16:30) 8.89 (17:00) 0 0 0 0 0
06-12-2019 21.7 (14:40) 14.7 (01:10) 18.2 14.44 (16:30) 9.72 (16:00) 0.4 0.4 0 0 0
05-12-2019 21.7 (12:00) 15.5 (00:00) 18.6 13.33 (06:40) 8.06 (14:10) 1.6 1.4 0 0 0.2
04-12-2019 23.3 (10:50) 14.8 (00:00) 19 9.17 (12:40) 6.11 (13:50) 0 0 0 0 0
03-12-2019 23.3 (16:20) 17 (00:00) 20.1 15 (13:20) 8.89 (13:20) 0 0 0 0 0
02-12-2019 23.2 (15:30) 15.2 (00:00) 19.2 12.5 (00:40) 6.67 (00:40) 0 0 0 0 0
01-12-2019 23 (12:30) 18.5 (00:00) 20.8 14.72 (17:30) 8.89 (06:20) 0 0 0 0 0
30-11-2019 26.7 (12:30) 19.5 (00:00) 23.1 11.94 (23:50) 6.94 (23:50) 0 0 0 0 0
29-11-2019 27.4 (12:40) 18.8 (00:00) 23.1 10.28 (02:20) 6.11 (02:20) 0 0 0 0 0
28-11-2019 24.3 (13:10) 17.8 (00:00) 21 11.39 (01:00) 6.67 (19:00) 0 0 0 0 0
27-11-2019 23.1 (14:00) 17.8 (00:00) 20.4 12.22 (13:10) 7.5 (13:30) 0 0 0 0 0
26-11-2019 23.8 (14:00) 17.7 (00:00) 20.8 12.22 (22:30) 7.5 (22:30) 0 0 0 0 0
25-11-2019 23.3 (13:00) 16.1 (00:00) 19.7 11.94 (12:30) 6.67 (01:20) 0 0 0 0 0
24-11-2019 24.4 (13:50) 17.1 (00:00) 20.8 13.33 (12:50) 7.78 (12:40) 0 0 0 0 0
23-11-2019 23.5 (11:40) 16.1 (00:00) 19.8 10 (20:20) 6.11 (20:30) 0.8 0 0 0.8 0
22-11-2019 25.8 (13:10) 15 (00:00) 20.4 6.67 (13:40) 3.89 (14:00) 0 0 0 0 0
21-11-2019 24.6 (11:50) 16.5 (00:00) 20.6 10.56 (13:30) 7.5 (13:40) 0 0 0 0 0
20-11-2019 23.3 (15:10) 14.9 (00:00) 19.1 10.56 (13:20) 6.94 (13:10) 0 0 0 0 0
19-11-2019 23.5 (11:40) 14.7 (00:00) 19.1 7.5 (12:30) 5 (13:20) 0 0 0 0 0
18-11-2019 22.4 (13:30) 17.4 (00:00) 19.9 13.33 (04:50) 8.33 (00:40) 0 0 0 0 0
17-11-2019 21.7 (12:30) 16.7 (00:00) 19.2 13.06 (13:30) 8.33 (13:30) 0 0 0 0 0
16-11-2019 22.3 (12:40) 16.5 (00:00) 19.4 15.56 (15:00) 10 (15:00) 0.2 0.2 0 0 0
15-11-2019 20.8 (15:30) 17.1 (00:00) 18.9 17.78 (00:20) 10.28 (00:10) 1.6 0 1.4 0 0.2
14-11-2019 23.2 (12:50) 19.4 (00:00) 21.3 15 (23:50) 8.89 (00:40) 0 0 0 0 0
13-11-2019 23.5 (13:50) 19.8 (00:00) 21.6 18.61 (11:50) 12.22 (00:30) 0 0 0 0 0
12-11-2019 24.3 (14:50) 19.6 (00:00) 21.9 18.89 (17:30) 12.5 (15:10) 0 0 0 0 0

Gráficas

Temp. máximas Temp. mínimas Temp. medias Precipitaciones Rachas de viento máximas Velocidades máximas media en intervalos de 10 minutos

Datos horarios

Fecha y hora oficial Temperatura (ºC) Velocidad del viento (km/h) Dirección del viento Racha (km/h) Dirección de racha Precipitación (mm) Presión (hPa) Tendencia (hPa) Humedad (%)
2019-12-11 23:00:00 17.9 27 Nordeste 50 Norte 0 -- -- 68
2019-12-11 22:00:00 17.9 26 Nordeste 43 Norte 0 -- -- 67
2019-12-11 21:00:00 18 21 Nordeste 43 Norte 0 -- -- 67
2019-12-11 20:00:00 18.2 24 Nordeste 46 Nordeste 0 -- -- 68
2019-12-11 19:00:00 18.2 24 Nordeste 42 Nordeste 0 -- -- 71
2019-12-11 18:00:00 18.8 25 Nordeste 53 Norte 0 -- -- 72
2019-12-11 17:00:00 19.9 26 Nordeste 49 Nordeste 0 -- -- 70
2019-12-11 16:00:00 21 24 Nordeste 51 Nordeste 0 -- -- 65
2019-12-11 15:00:00 21.1 31 Nordeste 49 Nordeste 0 -- -- 63
2019-12-11 14:00:00 21.4 30 Nordeste 46 Nordeste 0 -- -- 65
2019-12-11 13:00:00 21.8 28 Nordeste 47 Nordeste 0 -- -- 64
2019-12-11 12:00:00 22 24 Nordeste 42 Nordeste 0 -- -- 63
2019-12-11 11:00:00 21.2 24 Nordeste 41 Nordeste 0 -- -- 66
2019-12-11 10:00:00 20.7 23 Nordeste 39 Norte 0 -- -- 71
2019-12-11 09:00:00 19.2 20 Nordeste 33 Nordeste 0 -- -- 75
2019-12-11 08:00:00 17.7 16 Norte 34 Nordeste 0 -- -- 79
2019-12-11 07:00:00 17.6 18 Nordeste 35 Nordeste 0 -- -- 80
2019-12-11 06:00:00 17.6 19 Nordeste 34 Nordeste 0 -- -- 82
2019-12-11 05:00:00 18 20 Nordeste 35 Nordeste 0 -- -- 78
2019-12-11 04:00:00 18.1 21 Nordeste 42 Norte 0 -- -- 78
2019-12-11 03:00:00 18.1 21 Nordeste 40 Nordeste 0 -- -- 79
2019-12-11 02:00:00 18.5 23 Norte 47 Nordeste 0 -- -- 78
2019-12-11 01:00:00 18.8 28 Nordeste 45 Nordeste 0 -- -- 76
2019-12-11 00:00:00 18.8 26 Nordeste 47 Nordeste 0 -- -- 76
2019-12-10 23:00:00 19 26 Nordeste 44 Nordeste 0 -- -- 77
2019-12-10 22:00:00 19 22 Nordeste 44 Nordeste 0 -- -- 77
2019-12-10 21:00:00 18.8 23 Nordeste 47 Nordeste 0 -- -- 77
2019-12-10 20:00:00 19.1 22 Nordeste 39 Nordeste 0 -- -- 72
2019-12-10 19:00:00 19 23 Nordeste 40 Nordeste 0 -- -- 72
2019-12-10 18:00:00 19.3 22 Nordeste 40 Nordeste 0 -- -- 71
2019-12-10 17:00:00 21 20 Nordeste 44 Nordeste 0 -- -- 66
2019-12-10 16:00:00 21.6 22 Nordeste 45 Nordeste 0 -- -- 63
2019-12-10 15:00:00 21.8 24 Nordeste 40 Norte 0 -- -- 61
2019-12-10 14:00:00 22 24 Nordeste 41 Nordeste 0 -- -- 61
2019-12-10 13:00:00 21.9 22 Nordeste 40 Nordeste 0 -- -- 59
2019-12-10 12:00:00 21.5 21 Nordeste 39 Nordeste 0 -- -- 65
2019-12-10 11:00:00 21.1 21 Nordeste 39 Norte 0 -- -- 62
2019-12-10 10:00:00 20 20 Nordeste 38 Nordeste 0 -- -- 66
2019-12-10 09:00:00 18.6 19 Nordeste 33 Nordeste 0 -- -- 71
2019-12-10 08:00:00 17.1 17 Nordeste 27 Nordeste 0 -- -- 71
2019-12-10 07:00:00 16.7 15 Nordeste 25 Nordeste 0 -- -- 74
2019-12-10 06:00:00 16.7 11 Nordeste 23 Nordeste 0 -- -- 71
2019-12-10 05:00:00 17.3 13 Norte 38 Nordeste 0 -- -- 68
2019-12-10 04:00:00 17.7 22 Norte 40 Nordeste 0 -- -- 69
2019-12-10 03:00:00 17.6 22 Nordeste 36 Norte 0 -- -- 69
2019-12-10 02:00:00 17 15 Nordeste 30 Nordeste 0 -- -- 75
2019-12-10 01:00:00 17.3 13 Nordeste 24 Norte 0 -- -- 74
2019-12-10 00:00:00 17.6 15 Norte 24 Nordeste 0 -- -- 75
2019-12-09 23:00:00 17.4 12 Norte 21 Norte 0 -- -- 76
2019-12-09 22:00:00 17.8 12 Nordeste 26 Norte 0 -- -- 75
2019-12-09 21:00:00 18.2 15 Nordeste 31 Nordeste 0 -- -- 71
2019-12-09 20:00:00 18 16 Nordeste 31 Norte 0 -- -- 73
2019-12-09 19:00:00 18.3 17 Nordeste 36 Norte 0 -- -- 75
2019-12-09 18:00:00 19.1 21 Nordeste 36 Nordeste 0 -- -- 71
2019-12-09 17:00:00 20.6 21 Nordeste 36 Norte 0 -- -- 63
2019-12-09 16:00:00 21.2 23 Nordeste 39 Norte 0 -- -- 61
2019-12-09 15:00:00 21.5 24 Nordeste 41 Nordeste 0 -- -- 61
2019-12-09 14:00:00 22 25 Nordeste 46 Nordeste 0 -- -- 58
2019-12-09 13:00:00 21.8 25 Nordeste 41 Nordeste 0 -- -- 59
2019-12-09 12:00:00 21.8 22 Norte 42 Norte 0 -- -- 63
2019-12-09 11:00:00 19.8 22 Norte 35 Norte 0 -- -- 69
2019-12-09 10:00:00 18.9 18 Nordeste 31 Norte 0 -- -- 73
2019-12-09 09:00:00 18.1 21 Norte 32 Nordeste 0 -- -- 75
2019-12-09 08:00:00 17.6 19 Norte 29 Norte 0 -- -- 75
2019-12-09 07:00:00 17.4 14 Norte 29 Norte 0 -- -- 76
2019-12-09 06:00:00 17.6 20 Norte 32 Norte 0 -- -- 74
2019-12-09 05:00:00 17.5 20 Norte 33 Norte 0 -- -- 73
2019-12-09 04:00:00 17.7 17 Norte 32 Norte 0 -- -- 73
2019-12-09 03:00:00 17.8 19 Norte 31 Norte 0 -- -- 72
2019-12-09 02:00:00 18 21 Norte 34 Norte 0 -- -- 74
2019-12-09 01:00:00 17.9 19 Norte 36 Norte 0 -- -- 73
2019-12-09 00:00:00 17.9 21 Norte 35 Norte 0 -- -- 73
2019-12-08 23:00:00 18.1 22 Norte 36 Nordeste 0 -- -- 72
2019-12-08 22:00:00 18 18 Nordeste 37 Norte 0 -- -- 73
2019-12-08 21:00:00 18.1 19 Nordeste 41 Nordeste 0 -- -- 73
2019-12-08 20:00:00 18.2 18 Norte 31 Norte 0 -- -- 72
2019-12-08 19:00:00 18.3 19 Norte 38 Norte 0 -- -- 70
2019-12-08 18:00:00 18.8 26 Norte 46 Nordeste 0 -- -- 65
2019-12-08 17:00:00 20 24 Norte 48 Nordeste 0 -- -- 61
2019-12-08 16:00:00 20.6 24 Nordeste 45 Norte 0 -- -- 61
2019-12-08 15:00:00 21 25 Nordeste 43 Norte 0 -- -- 60
2019-12-08 14:00:00 21.4 27 Nordeste 46 Nordeste 0 -- -- 57
2019-12-08 13:00:00 21.1 27 Nordeste 43 Nordeste 0 -- -- 59
2019-12-08 12:00:00 20.5 25 Norte 46 Nordeste 0 -- -- 61
2019-12-08 11:00:00 20.5 26 Nordeste 42 Nordeste 0 -- -- 60
2019-12-08 10:00:00 20.1 22 Nordeste 42 Norte 0 -- -- 60
2019-12-08 09:00:00 18.4 17 Norte 32 Norte 0 -- -- 68
2019-12-08 08:00:00 17.6 18 Norte 40 Nordeste 0 -- -- 71
2019-12-08 07:00:00 17.3 20 Nordeste 33 Nordeste 0 -- -- 73
2019-12-08 06:00:00 17.6 20 Norte 36 Norte 0 -- -- 71
2019-12-08 05:00:00 17.9 19 Norte 33 Norte 0 -- -- 73
2019-12-08 04:00:00 18 18 Norte 32 Norte 0 -- -- 75
2019-12-08 03:00:00 18 16 Norte 37 Nordeste 0 -- -- 78
2019-12-08 02:00:00 18.2 19 Nordeste 38 Norte 0 -- -- 77
2019-12-08 01:00:00 18.2 18 Nordeste 36 Norte 0 -- -- 78
2019-12-08 00:00:00 18.2 16 Nordeste 31 Norte 0 -- -- 78
2019-12-07 23:00:00 18.3 17 Nordeste 33 Nordeste 0 -- -- 77
2019-12-07 22:00:00 18.3 17 Nordeste 31 Norte 0 -- -- 77
2019-12-07 21:00:00 18.5 18 Norte 33 Nordeste 0 -- -- 77
2019-12-07 20:00:00 18.6 19 Norte 35 Norte 0 -- -- 76
2019-12-07 19:00:00 18.7 23 Norte 36 Norte 0 -- -- 75
2019-12-07 18:00:00 19.1 26 Norte 46 Norte 0 -- -- 74
2019-12-07 17:00:00 19.9 32 Norte 50 Norte 0 -- -- 69
2019-12-07 16:00:00 21 28 Norte 47 Norte 0 -- -- 64
2019-12-07 15:00:00 21.4 30 Norte 44 Norte 0 -- -- 59
2019-12-07 14:00:00 21.8 23 Nordeste 44 Norte 0 -- -- 61
2019-12-07 13:00:00 22.2 23 Nordeste 47 Norte 0 -- -- 58
2019-12-07 12:00:00 21.1 28 Norte 44 Norte 0 -- -- 62
2019-12-07 11:00:00 20.5 27 Norte 40 Norte 0 -- -- 67
2019-12-07 10:00:00 20.3 23 Norte 34 Norte 0 -- -- 62
2019-12-07 09:00:00 19.1 19 Norte 32 Norte 0 -- -- 67
2019-12-07 08:00:00 18.1 18 Norte 31 Norte 0 -- -- 67
2019-12-07 07:00:00 17.7 17 Norte 33 Norte 0 -- -- 69
2019-12-07 06:00:00 17.3 18 Norte 27 Norte 0 -- -- 71
2019-12-07 05:00:00 16.8 14 Norte 30 Norte 0 -- -- 72
2019-12-07 04:00:00 17.4 17 Norte 26 Norte 0 -- -- 72
2019-12-07 03:00:00 17.4 16 Norte 27 Nordeste 0 -- -- 70
2019-12-07 02:00:00 17.6 13 Nordeste 32 Nordeste 0 -- -- 68
2019-12-07 01:00:00 17.9 14 Nordeste 28 Norte 0 -- -- 69
2019-12-07 00:00:00 17 4 Norte 26 Noroeste 0 -- -- 76
2019-12-06 23:00:00 17 16 Norte 35 Norte 0 -- -- 77
2019-12-06 22:00:00 17.8 17 Norte 44 Norte 0 -- -- 71
2019-12-06 21:00:00 17.6 23 Norte 40 Norte 0 -- -- 77
2019-12-06 20:00:00 18.1 26 Norte 46 Norte 0 -- -- 74
2019-12-06 19:00:00 18 22 Norte 37 Norte 0 -- -- 72
2019-12-06 18:00:00 18.8 23 Norte 41 Norte 0 -- -- 67
2019-12-06 17:00:00 18.7 26 Norte 52 Norte 0 -- -- 68
2019-12-06 16:00:00 19.5 35 Norte 49 Norte 0 -- -- 60
2019-12-06 15:00:00 20.7 28 Norte 46 Norte 0 -- -- 54
2019-12-06 14:00:00 21.5 28 Norte 44 Nordeste 0 -- -- 56
2019-12-06 13:00:00 20.9 23 Norte 41 Nordeste 0 -- -- 59
2019-12-06 12:00:00 20.9 30 Norte 47 Norte 0 -- -- 60
2019-12-06 11:00:00 20.7 25 Norte 50 Norte 0 -- -- 64
2019-12-06 10:00:00 19.1 22 Norte 35 Norte 0 -- -- 70
2019-12-06 09:00:00 18.1 16 Norte 32 Norte 0 -- -- 64
2019-12-06 08:00:00 17.4 15 Norte 30 Norte 0 -- -- 68
2019-12-06 07:00:00 17.4 22 Norte 41 Norte 0 -- -- 72
2019-12-06 06:00:00 17.3 19 Norte 33 Norte 0 -- -- 66
2019-12-06 05:00:00 17.4 18 Norte 35 Noroeste 0 -- -- 66
2019-12-06 04:00:00 16.8 13 Norte 28 Noroeste 0 -- -- 66
2019-12-06 03:00:00 16.5 15 Norte 25 Norte 0 -- -- 72
2019-12-06 02:00:00 15.4 7 Noroeste 14 Noroeste 0 -- -- 75
2019-12-06 01:00:00 14.8 7 Noroeste 11 Noroeste 0.4 -- -- 83
2019-12-06 00:00:00 16.5 8 Norte 24 Norte 0 -- -- 74
2019-12-05 23:00:00 16.2 10 Norte 22 Noroeste 0 -- -- 70
2019-12-05 22:00:00 16.5 13 Norte 31 Norte 0.2 -- -- 71
2019-12-05 21:00:00 17.7 15 Norte 27 Norte 0 -- -- 60
2019-12-05 20:00:00 17.6 14 Norte 28 Nordeste 0 -- -- 64
2019-12-05 19:00:00 17.5 12 Norte 42 Nordeste 0 -- -- 62
2019-12-05 18:00:00 18.2 24 Norte 43 Norte 0 -- -- 59
2019-12-05 17:00:00 19.5 18 Norte 30 Norte 0 -- -- 56
2019-12-05 16:00:00 19.6 15 Nordeste 33 Norte 0 -- -- 56
2019-12-05 15:00:00 20.7 12 Noroeste 46 Norte 0 -- -- 50
2019-12-05 14:00:00 21.3 23 Norte 41 Norte 0 -- -- 48
2019-12-05 13:00:00 21.2 22 Norte 37 Norte 0 -- -- 48
2019-12-05 12:00:00 21.7 21 Norte 37 Norte 0 -- -- 48
2019-12-05 11:00:00 20.7 22 Norte 40 Norte 0 -- -- 54
2019-12-05 10:00:00 19.8 22 Norte 37 Norte 0 -- -- 55
2019-12-05 09:00:00 18.6 18 Norte 41 Norte 0 -- -- 58
2019-12-05 08:00:00 17.9 24 Norte 41 Noroeste 0 -- -- 52
2019-12-05 07:00:00 17.9 21 Norte 48 Norte 0 -- -- 54
2019-12-05 06:00:00 17 22 Norte 37 Norte 0 -- -- 71
2019-12-05 05:00:00 16.5 19 Norte 33 Norte 0 -- -- 77
2019-12-05 04:00:00 15.9 13 Nordeste 23 Norte 0.6 -- -- 94
2019-12-05 03:00:00 16.3 14 Norte 21 Norte 0.8 -- -- 90
2019-12-05 02:00:00 17.7 4 Nordeste 10 Noroeste 0 -- -- 76
2019-12-05 01:00:00 16.9 7 Norte 10 Norte 0 -- -- 76
2019-12-05 00:00:00 17.1 6 Norte 8 Norte 0 -- -- 77
2019-12-04 23:00:00 17.8 4 Sudoeste 10 Sur 0 -- -- 76
2019-12-04 22:00:00 18.1 6 Sur 12 Sur 0 -- -- 72
2019-12-04 21:00:00 18.1 6 Sur 10 Noroeste 0 -- -- 71
2019-12-04 20:00:00 18.3 4 Oeste 14 Sudeste 0 -- -- 70
2019-12-04 19:00:00 18.5 8 Sudeste 14 Sudeste 0 -- -- 66
2019-12-04 18:00:00 19.6 7 Sudeste 13 Sudeste 0 -- -- 64
2019-12-04 17:00:00 20.3 9 Sur 14 Sudeste 0 -- -- 61
2019-12-04 16:00:00 21.3 8 Sur 23 Sur 0 -- -- 60
2019-12-04 15:00:00 21.4 15 Sur 26 Sur 0 -- -- 58
2019-12-04 14:00:00 22.4 18 Sudoeste 29 Sur 0 -- -- 52
2019-12-04 13:00:00 23 14 Sur 33 Oeste 0 -- -- 59
2019-12-04 12:00:00 23.2 13 Nordeste 25 Nordeste 0 -- -- 49
2019-12-04 11:00:00 22.5 13 Este 31 Este 0 -- -- 44
2019-12-04 10:00:00 21.5 2 Oeste 14 Norte 0 -- -- 50
2019-12-04 09:00:00 18.1 4 Oeste 6 Oeste 0 -- -- 64
2019-12-04 08:00:00 17.1 5 Norte 14 Norte 0 -- -- 62
2019-12-04 07:00:00 17.2 11 Norte 23 Norte 0 -- -- 69
2019-12-04 06:00:00 16.8 8 Noroeste 15 Norte 0 -- -- 60
2019-12-04 05:00:00 15.3 10 Norte 15 Norte 0 -- -- 62
2019-12-04 04:00:00 15.7 10 Norte 17 Norte 0 -- -- 67
2019-12-04 03:00:00 16.1 6 Noroeste 15 Norte 0 -- -- 67
2019-12-04 02:00:00 17 10 Norte 27 Norte 0 -- -- 59
2019-12-04 01:00:00 18.1 15 Nordeste 25 Norte 0 -- -- 63
2019-12-04 00:00:00 17.9 12 Norte 24 Norte 0 -- -- 59
2019-12-03 23:00:00 18.5 11 Norte 23 Norte 0 -- -- 54
2019-12-03 22:00:00 18.4 10 Norte 24 Norte 0 -- -- 57
2019-12-03 21:00:00 18.9 17 Norte 28 Norte 0 -- -- 47
2019-12-03 20:00:00 19 17 Norte 31 Norte 0 -- -- 52
2019-12-03 19:00:00 19.2 17 Norte 38 Norte 0 -- -- 51
2019-12-03 18:00:00 20 18 Norte 42 Norte 0 -- -- 45
2019-12-03 17:00:00 20.7 20 Norte 35 Norte 0 -- -- 48
2019-12-03 16:00:00 22 15 Nordeste 44 Norte 0 -- -- 45
2019-12-03 15:00:00 21.9 20 Norte 45 Nordeste 0 -- -- 48
2019-12-03 14:00:00 21.1 23 Norte 54 Nordeste 0 -- -- 54
2019-12-03 13:00:00 21.8 28 Norte 45 Nordeste 0 -- -- 51
2019-12-03 12:00:00 22.2 24 Norte 42 Norte 0 -- -- 45
2019-12-03 11:00:00 21.1 24 Norte 41 Norte 0 -- -- 49
2019-12-03 10:00:00 19.8 22 Norte 40 Norte 0 -- -- 56
2019-12-03 09:00:00 19.1 18 Norte 30 Nordeste 0 -- -- 62
2019-12-03 08:00:00 18.5 14 Norte 28 Norte 0 -- -- 62
2019-12-03 07:00:00 17.9 11 Norte 30 Norte 0 -- -- 67
2019-12-03 06:00:00 18.1 8 Noroeste 27 Noroeste 0 -- -- 63
2019-12-03 05:00:00 18.3 15 Norte 36 Norte 0 -- -- 61
2019-12-03 04:00:00 17 6 Noroeste 20 Norte 0 -- -- 70
2019-12-03 03:00:00 17.9 14 Norte 35 Norte 0 -- -- 65
2019-12-03 02:00:00 17.8 16 Norte 30 Norte 0 -- -- 70
2019-12-03 01:00:00 18.1 21 Norte 40 Norte 0 -- -- 67
2019-12-03 00:00:00 17.9 17 Norte 35 Norte 0 -- -- 70
2019-12-02 23:00:00 17.7 18 Nordeste 38 Norte 0 -- -- 75
2019-12-02 22:00:00 17.8 8 Nordeste 32 Norte 0 -- -- 72
2019-12-02 21:00:00 17.8 6 Norte 26 Nordeste 0 -- -- 74
2019-12-02 20:00:00 18.9 13 Norte 28 Nordeste 0 -- -- 72
2019-12-02 19:00:00 18.7 3 Oeste 20 Sudeste 0 -- -- 72
2019-12-02 18:00:00 20.1 8 Sudeste 18 Sur 0 -- -- 74
2019-12-02 17:00:00 21.7 11 Sur 22 Sudoeste 0 -- -- 68
2019-12-02 16:00:00 21.4 10 Sur 18 Sur 0 -- -- 69
2019-12-02 15:00:00 21.4 12 Sur 21 Sudoeste 0 -- -- 68
2019-12-02 14:00:00 22.6 8 Sur 22 Sudeste 0 -- -- 58
2019-12-02 13:00:00 22.7 10 Sudoeste 17 Oeste 0 -- -- 59
2019-12-02 12:00:00 21.3 6 Sur 12 Sur 0 -- -- 67
2019-12-02 11:00:00 20.6 12 Nordeste 20 Norte 0 -- -- 69
2019-12-02 10:00:00 20.1 3 Sudoeste 6 Norte 0 -- -- 72
2019-12-02 09:00:00 17.8 4 Norte 12 Nordeste 0 -- -- 72
2019-12-02 08:00:00 15.9 8 Oeste 10 Norte 0 -- -- 80
2019-12-02 07:00:00 15.5 4 Noroeste 12 Sur 0 -- -- 80
2019-12-02 06:00:00 16.2 7 Sudeste 13 Sudeste 0 -- -- 83
2019-12-02 05:00:00 15.3 5 Norte 15 Este 0 -- -- 81
2019-12-02 04:00:00 16.6 3 Nordeste 11 Norte 0 -- -- 76
2019-12-02 03:00:00 17.8 7 Noroeste 39 Norte 0 -- -- 71
2019-12-02 02:00:00 18.8 17 Nordeste 34 Norte 0 -- -- 63
2019-12-02 01:00:00 19 17 Nordeste 45 Norte 0 -- -- 65
2019-12-02 00:00:00 18.5 14 Nordeste 36 Nordeste 0 -- -- 68
2019-12-01 23:00:00 18.7 20 Nordeste 33 Nordeste 0 -- -- 69
2019-12-01 22:00:00 19.1 14 Nordeste 28 Norte 0 -- -- 66
2019-12-01 21:00:00 19 13 Nordeste 37 Nordeste 0 -- -- 67
2019-12-01 20:00:00 19.2 21 Nordeste 40 Nordeste 0 -- -- 71
2019-12-01 19:00:00 19.6 26 Nordeste 51 Nordeste 0 -- -- 66
2019-12-01 18:00:00 19.7 24 Nordeste 53 Nordeste 0 -- -- 69
2019-12-01 17:00:00 21 27 Nordeste 48 Nordeste 0 -- -- 67
2019-12-01 16:00:00 21.7 27 Nordeste 47 Nordeste 0 -- -- 67
2019-12-01 15:00:00 22.2 25 Nordeste 41 Nordeste 0 -- -- 66
2019-12-01 14:00:00 22.5 29 Nordeste 47 Nordeste 0 -- -- 63
2019-12-01 13:00:00 22.2 27 Nordeste 46 Este 0 -- -- 65
2019-12-01 12:00:00 22.5 27 Nordeste 47 Nordeste 0 -- -- 62
2019-12-01 11:00:00 21.8 26 Nordeste 51 Norte 0 -- -- 65
2019-12-01 10:00:00 20.9 31 Nordeste 48 Norte 0 -- -- 68
2019-12-01 09:00:00 20 26 Nordeste 50 Nordeste 0 -- -- 71
2019-12-01 08:00:00 19 27 Nordeste 52 Norte 0 -- -- 75
2019-12-01 07:00:00 18.9 30 Nordeste 52 Norte 0 -- -- 76
2019-12-01 06:00:00 18.7 28 Nordeste 52 Nordeste 0 -- -- 79
2019-12-01 05:00:00 18.8 26 Nordeste 44 Nordeste 0 -- -- 78
2019-12-01 04:00:00 18.7 26 Nordeste 43 Nordeste 0 -- -- 80
2019-12-01 03:00:00 19 23 Nordeste 43 Nordeste 0 -- -- 82
2019-12-01 02:00:00 19.1 25 Nordeste 43 Nordeste 0 -- -- 82
2019-12-01 01:00:00 19.4 22 Nordeste 48 Nordeste 0 -- -- 81
2019-12-01 00:00:00 19.6 25 Nordeste 43 Norte 0 -- -- 79
2019-11-30 23:00:00 19.5 16 Nordeste 30 Nordeste 0 -- -- 82
2019-11-30 22:00:00 19.9 15 Nordeste 30 Nordeste 0 -- -- 78
2019-11-30 21:00:00 20.1 15 Nordeste 27 Nordeste 0 -- -- 75
2019-11-30 20:00:00 19.9 15 Nordeste 27 Nordeste 0 -- -- 81
2019-11-30 19:00:00 20.3 18 Nordeste 29 Nordeste 0 -- -- 83
2019-11-30 18:00:00 21.3 19 Nordeste 32 Nordeste 0 -- -- 79
2019-11-30 17:00:00 23.5 18 Nordeste 33 Nordeste 0 -- -- 70
2019-11-30 16:00:00 25.4 19 Nordeste 30 Nordeste 0 -- -- 52
2019-11-30 15:00:00 26.2 17 Nordeste 27 Nordeste 0 -- -- 45
2019-11-30 14:00:00 25.9 18 Nordeste 24 Este 0 -- -- 38
2019-11-30 13:00:00 25.4 15 Nordeste 25 Este 0 -- -- 40
2019-11-30 12:00:00 26.6 15 Nordeste 24 Nordeste 0 -- -- 35
2019-11-30 11:00:00 25.6 17 Nordeste 26 Nordeste 0 -- -- 39
2019-11-30 10:00:00 26 14 Nordeste 21 Nordeste 0 -- -- 34
2019-11-30 09:00:00 24.2 8 Nordeste 18 Norte 0 -- -- 32
2019-11-30 08:00:00 21.7 11 Norte 22 Nordeste 0 -- -- 32
2019-11-30 07:00:00 20.5 11 Norte 21 Norte 0 -- -- 34
2019-11-30 06:00:00 21.7 11 Norte 17 Norte 0 -- -- 29
2019-11-30 05:00:00 20.5 13 Norte 21 Norte 0 -- -- 35
2019-11-30 04:00:00 20.2 13 Norte 23 Norte 0 -- -- 48
2019-11-30 03:00:00 21.4 13 Nordeste 23 Norte 0 -- -- 46
2019-11-30 02:00:00 21 11 Norte 18 Norte 0 -- -- 34
2019-11-30 01:00:00 20.5 12 Norte 21 Norte 0 -- -- 41
2019-11-30 00:00:00 21.5 12 Norte 27 Norte 0 -- -- 47
2019-11-29 23:00:00 21.3 14 Nordeste 25 Nordeste 0 -- -- 53
2019-11-29 22:00:00 21.4 19 Nordeste 31 Nordeste 0 -- -- 63
2019-11-29 21:00:00 21.5 18 Nordeste 27 Nordeste 0 -- -- 62
2019-11-29 20:00:00 21.7 15 Norte 22 Nordeste 0 -- -- 56
2019-11-29 19:00:00 21.8 10 Nordeste 19 Norte 0 -- -- 53
2019-11-29 18:00:00 22.5 11 Nordeste 23 Norte 0 -- -- 51
2019-11-29 17:00:00 25 14 Nordeste 22 Nordeste 0 -- -- 43
2019-11-29 16:00:00 26.2 12 Nordeste 25 Nordeste 0 -- -- 41
2019-11-29 15:00:00 26.5 15 Nordeste 25 Nordeste 0 -- -- 42
2019-11-29 14:00:00 26.5 16 Nordeste 26 Nordeste 0 -- -- 39
2019-11-29 13:00:00 26.8 16 Nordeste 27 Nordeste 0 -- -- 39
2019-11-29 12:00:00 26.9 14 Nordeste 30 Nordeste 0 -- -- 38
2019-11-29 11:00:00 25.7 20 Nordeste 33 Nordeste 0 -- -- 41
2019-11-29 10:00:00 25.8 16 Nordeste 26 Nordeste 0 -- -- 38
2019-11-29 09:00:00 24.1 14 Norte 28 Norte 0 -- -- 38
2019-11-29 08:00:00 21.1 12 Norte 23 Norte 0 -- -- 44
2019-11-29 07:00:00 19 15 Norte 27 Norte 0 -- -- 78
2019-11-29 06:00:00 19.2 17 Nordeste 31 Nordeste 0 -- -- 80
2019-11-29 05:00:00 19.4 15 Nordeste 32 Nordeste 0 -- -- 75
2019-11-29 04:00:00 19.6 18 Nordeste 32 Nordeste 0 -- -- 76
2019-11-29 03:00:00 20.1 16 Norte 37 Nordeste 0 -- -- 65
2019-11-29 02:00:00 20.4 16 Nordeste 33 Nordeste 0 -- -- 60
2019-11-29 01:00:00 20.5 21 Nordeste 33 Nordeste 0 -- -- 62
2019-11-29 00:00:00 20.6 22 Nordeste 38 Nordeste 0 -- -- 57
2019-11-28 23:00:00 20.2 19 Nordeste 38 Nordeste 0 -- -- 65
2019-11-28 22:00:00 20.3 20 Nordeste 36 Nordeste 0 -- -- 67
2019-11-28 21:00:00 20.4 21 Nordeste 39 Nordeste 0 -- -- 68
2019-11-28 20:00:00 19.8 21 Nordeste 40 Nordeste 0 -- -- 76
2019-11-28 19:00:00 19.6 24 Nordeste 38 Nordeste 0 -- -- 82
2019-11-28 18:00:00 20 24 Nordeste 40 Nordeste 0 -- -- 79
2019-11-28 17:00:00 21 17 Nordeste 31 Norte 0 -- -- 73
2019-11-28 16:00:00 21.6 18 Nordeste 31 Norte 0 -- -- 71
2019-11-28 15:00:00 22.9 17 Nordeste 34 Norte 0 -- -- 65
2019-11-28 14:00:00 23.4 16 Nordeste 28 Nordeste 0 -- -- 63
2019-11-28 13:00:00 23.8 19 Nordeste 31 Nordeste 0 -- -- 59
2019-11-28 12:00:00 23.7 18 Nordeste 31 Nordeste 0 -- -- 60
2019-11-28 11:00:00 23.7 17 Nordeste 31 Nordeste 0 -- -- 59
2019-11-28 10:00:00 21.2 18 Nordeste 31 Nordeste 0 -- -- 67
2019-11-28 09:00:00 19.4 18 Nordeste 32 Norte 0 -- -- 73
2019-11-28 08:00:00 18.1 14 Nordeste 22 Nordeste 0 -- -- 79
2019-11-28 07:00:00 17.9 14 Nordeste 25 Norte 0 -- -- 80
2019-11-28 06:00:00 18 14 Nordeste 29 Nordeste 0 -- -- 80
2019-11-28 05:00:00 18 14 Nordeste 29 Nordeste 0 -- -- 80
2019-11-28 04:00:00 18 12 Nordeste 32 Nordeste 0 -- -- 80
2019-11-28 03:00:00 18.4 17 Nordeste 32 Nordeste 0 -- -- 79
2019-11-28 02:00:00 18.7 20 Nordeste 34 Nordeste 0 -- -- 79
2019-11-28 01:00:00 18.7 20 Nordeste 41 Nordeste 0 -- -- 78
2019-11-28 00:00:00 18.7 21 Nordeste 39 Norte 0 -- -- 78
2019-11-27 23:00:00 18.8 19 Nordeste 36 Norte 0 -- -- 78
2019-11-27 22:00:00 18.9 18 Nordeste 36 Nordeste 0 -- -- 76
2019-11-27 21:00:00 19.1 21 Nordeste 37 Nordeste 0 -- -- 75
2019-11-27 20:00:00 19.2 20 Nordeste 37 Nordeste 0 -- -- 75
2019-11-27 19:00:00 19.4 13 Nordeste 33 Nordeste 0 -- -- 74
2019-11-27 18:00:00 20 17 Nordeste 32 Norte 0 -- -- 72
2019-11-27 17:00:00 21.7 18 Nordeste 33 Nordeste 0 -- -- 66
2019-11-27 16:00:00 22.8 21 Nordeste 37 Nordeste 0 -- -- 63
2019-11-27 15:00:00 22.6 23 Nordeste 41 Nordeste 0 -- -- 67
2019-11-27 14:00:00 23.1 23 Nordeste 44 Nordeste 0 -- -- 63
2019-11-27 13:00:00 22.8 24 Nordeste 43 Nordeste 0 -- -- 63
2019-11-27 05:00:00 -- -- -- -- -- -- -- -- --
2019-11-27 04:00:00 -- -- -- -- -- -- -- -- --
2019-11-27 03:00:00 -- -- -- -- -- -- -- -- --
2019-11-27 02:00:00 19 20 Norte 33 Nordeste 0 -- -- 74
2019-11-27 01:00:00 18.9 18 Nordeste 36 Nordeste 0 -- -- 77
2019-11-27 00:00:00 18.8 19 Nordeste 39 Nordeste 0 -- -- 78
2019-11-26 23:00:00 19.1 27 Nordeste 44 Nordeste 0 -- -- 75
2019-11-26 22:00:00 19.2 23 Nordeste 42 Nordeste 0 -- -- 74
2019-11-26 21:00:00 19.3 17 Norte 33 Norte 0 -- -- 73
2019-11-26 20:00:00 19.4 19 Nordeste 33 Nordeste 0 -- -- 75
2019-11-26 19:00:00 19.7 13 Norte 37 Norte 0 -- -- 74
2019-11-26 18:00:00 20.5 21 Nordeste 41 Nordeste 0 -- -- 69
2019-11-26 17:00:00 22.1 22 Nordeste 40 Nordeste 0 -- -- 65
2019-11-26 16:00:00 22.7 15 Nordeste 32 Nordeste 0 -- -- 65
2019-11-26 15:00:00 22.8 18 Nordeste 28 Nordeste 0 -- -- 64
2019-11-26 14:00:00 23.8 6 Nordeste 21 Norte 0 -- -- 61
2019-11-26 13:00:00 23.5 15 Nordeste 33 Nordeste 0 -- -- 60
2019-11-26 12:00:00 22.8 20 Nordeste 35 Nordeste 0 -- -- 64
2019-11-26 11:00:00 22.5 19 Nordeste 32 Nordeste 0 -- -- 65
2019-11-26 10:00:00 21.4 19 Nordeste 33 Nordeste 0 -- -- 65
2019-11-26 09:00:00 18.7 13 Norte 28 Norte 0 -- -- 76
2019-11-26 08:00:00 17.8 12 Norte 26 Nordeste 0 -- -- 77
2019-11-26 07:00:00 18.2 10 Nordeste 26 Nordeste 0 -- -- 76
2019-11-26 06:00:00 18.5 15 Norte 35 Norte 0 -- -- 74
2019-11-26 05:00:00 18.6 17 Norte 32 Norte 0 -- -- 75
2019-11-26 04:00:00 18.6 16 Nordeste 34 Nordeste 0 -- -- 75
2019-11-26 03:00:00 18.7 18 Nordeste 33 Nordeste 0 -- -- 74
2019-11-26 02:00:00 18.7 18 Norte 28 Nordeste 0 -- -- 74
2019-11-26 01:00:00 18.9 17 Norte 32 Nordeste 0 -- -- 74
2019-11-26 00:00:00 18.9 17 Nordeste 31 Nordeste 0 -- -- 76
2019-11-25 23:00:00 19 14 Nordeste 32 Nordeste 0 -- -- 76
2019-11-25 22:00:00 19.2 16 Nordeste 33 Nordeste 0 -- -- 75
2019-11-25 21:00:00 19.3 17 Nordeste 34 Nordeste 0 -- -- 75
2019-11-25 20:00:00 19.5 17 Nordeste 32 Nordeste 0 -- -- 74
2019-11-25 19:00:00 20 14 Norte 32 Nordeste 0 -- -- 64
2019-11-25 18:00:00 20.2 20 Nordeste 40 Nordeste 0 -- -- 66
2019-11-25 17:00:00 21.1 18 Nordeste 38 Nordeste 0 -- -- 66
2019-11-25 16:00:00 21.7 22 Nordeste 38 Nordeste 0 -- -- 65
2019-11-25 15:00:00 22.3 21 Nordeste 35 Este 0 -- -- 61
2019-11-25 14:00:00 23 21 Nordeste 37 Este 0 -- -- 59
2019-11-25 13:00:00 23.3 22 Nordeste 43 Nordeste 0 -- -- 58
2019-11-25 12:00:00 22.5 20 Nordeste 41 Nordeste 0 -- -- 59
2019-11-25 11:00:00 22.2 22 Nordeste 37 Nordeste 0 -- -- 61
2019-11-25 10:00:00 20.4 20 Nordeste 36 Nordeste 0 -- -- 67
2019-11-25 09:00:00 19.8 15 Norte 31 Norte 0 -- -- 68
2019-11-25 08:00:00 18.1 15 Norte 27 Norte 0 -- -- 69
2019-11-25 07:00:00 17.3 10 Norte 28 Norte 0 -- -- 68
2019-11-25 06:00:00 17.8 12 Norte 31 Norte 0 -- -- 70
2019-11-25 05:00:00 16.7 10 Norte 23 Norte 0 -- -- 72
2019-11-25 04:00:00 18 10 Norte 31 Norte 0 -- -- 66
2019-11-25 03:00:00 18 16 Norte 30 Nordeste 0 -- -- 66
2019-11-25 02:00:00 18.5 19 Norte 37 Norte 0 -- -- 65
2019-11-25 01:00:00 19.1 21 Norte 37 Nordeste 0 -- -- 64
2019-11-25 00:00:00 19.2 23 Norte 41 Nordeste 0 -- -- 65
2019-11-24 23:00:00 19.1 19 Nordeste 48 Norte 0 -- -- 65
2019-11-24 22:00:00 19.5 21 Nordeste 40 Nordeste 0 -- -- 62
2019-11-24 21:00:00 19.3 21 Nordeste 37 Nordeste 0 -- -- 64
2019-11-24 20:00:00 19.6 23 Nordeste 39 Nordeste 0 -- -- 69
2019-11-24 19:00:00 20 20 Nordeste 45 Norte 0 -- -- 68
2019-11-24 18:00:00 20.2 24 Nordeste 39 Nordeste 0 -- -- 65
2019-11-24 17:00:00 21.2 21 Nordeste 45 Nordeste 0 -- -- 65
2019-11-24 16:00:00 22.1 24 Nordeste 41 Nordeste 0 -- -- 65
2019-11-24 15:00:00 22 23 Nordeste 44 Nordeste 0 -- -- 68
2019-11-24 14:00:00 24.1 23 Nordeste 42 Nordeste 0 -- -- 57
2019-11-24 13:00:00 23.3 28 Nordeste 48 Nordeste 0 -- -- 61
2019-11-24 12:00:00 24.3 22 Nordeste 43 Nordeste 0 -- -- 62
2019-11-24 11:00:00 23.2 24 Nordeste 42 Nordeste 0 -- -- 59
2019-11-24 10:00:00 22.1 20 Nordeste 35 Nordeste 0 -- -- 69
2019-11-24 09:00:00 20.9 15 Nordeste 26 Norte 0 -- -- 71
2019-11-24 08:00:00 18.7 12 Norte 22 Norte 0 -- -- 84
2019-11-24 07:00:00 18.4 4 Norte 15 Norte 0 -- -- 79
2019-11-24 06:00:00 18.1 5 Noroeste 11 Oeste 0 -- -- 78
2019-11-24 05:00:00 17.8 3 Norte 12 Norte 0 -- -- 80
2019-11-24 04:00:00 18.5 7 Nordeste 20 Nordeste 0 -- -- 81
2019-11-24 03:00:00 18.7 7 Norte 14 Norte 0 -- -- 76
2019-11-24 02:00:00 18.7 5 Norte 20 Nordeste 0 -- -- 76
2019-11-24 01:00:00 19.1 8 Norte 19 Norte 0 -- -- 73
2019-11-24 00:00:00 20.6 17 Norte 32 Nordeste 0 -- -- 67
2019-11-23 23:00:00 20.2 10 Norte 33 Nordeste 0 -- -- 68
2019-11-23 22:00:00 20.6 17 Nordeste 33 Norte 0 -- -- 65
2019-11-23 21:00:00 20.9 17 Norte 36 Nordeste 0 -- -- 64
2019-11-23 20:00:00 20.2 17 Nordeste 28 Nordeste 0 -- -- 75
2019-11-23 19:00:00 20.4 16 Nordeste 32 Nordeste 0 -- -- 80
2019-11-23 18:00:00 21.3 17 Norte 29 Nordeste 0 -- -- 78
2019-11-23 17:00:00 20.7 3 Sudeste 21 Sur 0.8 -- -- 89
2019-11-23 16:00:00 22.2 15 Sudoeste 22 Sudoeste 0 -- -- 77
2019-11-23 15:00:00 22.3 14 Sudoeste 22 Sur 0 -- -- 78
2019-11-23 14:00:00 23.2 14 Sur 23 Sudoeste 0 -- -- 74
2019-11-23 13:00:00 22.3 14 Sudoeste 22 Sudoeste 0 -- -- 78
2019-11-23 12:00:00 23.5 12 Sur 19 Sur 0 -- -- 72
2019-11-23 11:00:00 21.2 10 Sudoeste 14 Sudoeste 0 -- -- 83
2019-11-23 10:00:00 21.5 3 Sur 5 Sudeste 0 -- -- 77
2019-11-23 09:00:00 19.6 0 Calma 5 Nordeste 0 -- -- 75
2019-11-23 08:00:00 18.5 5 Oeste 11 Sudoeste 0 -- -- 86
2019-11-23 07:00:00 17 5 Oeste 10 Sudoeste 0 -- -- 85
2019-11-23 06:00:00 16.8 5 Noroeste 9 Noroeste 0 -- -- 85
2019-11-23 05:00:00 16.1 6 Noroeste 9 Norte 0 -- -- 86
2019-11-23 04:00:00 16.8 6 Noroeste 9 Noroeste 0 -- -- 84
2019-11-23 03:00:00 17.1 6 Noroeste 9 Noroeste 0 -- -- 84
2019-11-23 02:00:00 18.2 2 Sudoeste 6 Noroeste 0 -- -- 83
2019-11-23 01:00:00 17.6 5 Norte 6 Norte 0 -- -- 85
2019-11-23 00:00:00 17.8 3 Noroeste 14 Sudoeste 0 -- -- 83
2019-11-22 23:00:00 18.8 9 Sudoeste 14 Sudoeste 0 -- -- 82
2019-11-22 22:00:00 17.7 2 Oeste 4 Oeste 0 -- -- 84
2019-11-22 21:00:00 18.6 0 Calma 2 Sur 0 -- -- 81
2019-11-22 20:00:00 18.8 0 Calma 3 Norte 0 -- -- 80
2019-11-22 19:00:00 20.2 2 Nordeste 13 Nordeste 0 -- -- 78
2019-11-22 18:00:00 21.4 11 Nordeste 18 Sur 0 -- -- 73
2019-11-22 17:00:00 23.6 3 Este 15 Sur 0 -- -- 66
2019-11-22 16:00:00 24.1 9 Sur 16 Sur 0 -- -- 67
2019-11-22 15:00:00 23.6 9 Este 22 Nordeste 0 -- -- 62
2019-11-22 14:00:00 25.1 14 Nordeste 24 Nordeste 0 -- -- 58
2019-11-22 13:00:00 25 8 Sur 17 Sudeste 0 -- -- 60
2019-11-22 12:00:00 24.8 7 Sur 13 Sudeste 0 -- -- 63
2019-11-22 11:00:00 23.6 4 Sudoeste 9 Oeste 0 -- -- 67
2019-11-22 10:00:00 22.3 7 Sur 10 Sur 0 -- -- 72
2019-11-22 09:00:00 21.6 2 Este 8 Noroeste 0 -- -- 72
2019-11-22 08:00:00 16.3 7 Norte 9 Norte 0 -- -- 82
2019-11-22 07:00:00 15.4 4 Norte 10 Norte 0 -- -- 83
2019-11-22 06:00:00 15.8 7 Norte 10 Norte 0 -- -- 82
2019-11-22 05:00:00 15.4 7 Norte 8 Norte 0 -- -- 84
2019-11-22 04:00:00 15.2 3 Norte 7 Norte 0 -- -- 86
2019-11-22 03:00:00 15.8 4 Norte 8 Norte 0 -- -- 84
2019-11-22 02:00:00 16.4 7 Norte 10 Norte 0 -- -- 85
2019-11-22 01:00:00 16.4 3 Norte 8 Noroeste 0 -- -- 85
2019-11-22 00:00:00 16.5 0 Calma 7 Norte 0 -- -- 84
2019-11-21 23:00:00 17 5 Noroeste 8 Norte 0 -- -- 84
2019-11-21 22:00:00 17.1 6 Norte 7 Norte 0 -- -- 84
2019-11-21 21:00:00 17.3 3 Norte 5 Norte 0 -- -- 81
2019-11-21 20:00:00 18.5 2 Nordeste 8 Norte 0 -- -- 80
2019-11-21 19:00:00 19.7 5 Nordeste 13 Nordeste 0 -- -- 77
2019-11-21 18:00:00 20.8 7 Norte 28 Sudoeste 0 -- -- 74
2019-11-21 17:00:00 21.6 20 Sudoeste 31 Sudoeste 0 -- -- 68
2019-11-21 16:00:00 22.5 18 Sudoeste 31 Sudoeste 0 -- -- 67
2019-11-21 15:00:00 22.2 8 Oeste 24 Norte 0 -- -- 70
2019-11-21 14:00:00 22.5 13 Norte 38 Sudoeste 0 -- -- 70
2019-11-21 13:00:00 23.5 22 Sur 32 Sur 0 -- -- 69
2019-11-21 12:00:00 24 7 Sudeste 15 Sudeste 0 -- -- 65
2019-11-21 11:00:00 21.7 9 Este 15 Sur 0 -- -- 67
2019-11-21 10:00:00 22.2 5 Este 10 Este 0 -- -- 63
2019-11-21 09:00:00 20.8 3 Norte 8 Norte 0 -- -- 70
2019-11-21 08:00:00 17.8 4 Noroeste 9 Noroeste 0 -- -- 80
2019-11-21 07:00:00 -- -- -- -- -- -- -- -- --
2019-11-21 06:00:00 -- -- -- -- -- -- -- -- --
2019-11-21 05:00:00 -- -- -- -- -- -- -- -- --
2019-11-21 04:00:00 -- -- -- -- -- -- -- -- --
2019-11-21 03:00:00 -- -- -- -- -- -- -- -- --
2019-11-21 02:00:00 -- -- -- -- -- -- -- -- --
2019-11-21 01:00:00 -- -- -- -- -- -- -- -- --
2019-11-21 00:00:00 -- -- -- -- -- -- -- -- --
2019-11-20 23:00:00 -- -- -- -- -- -- -- -- --
2019-11-20 22:00:00 -- -- -- -- -- -- -- -- --
2019-11-20 21:00:00 -- -- -- -- -- -- -- -- --
2019-11-20 20:00:00 -- -- -- -- -- -- -- -- --
2019-11-20 19:00:00 20.1 11 Norte 24 Norte 0 -- -- 73
2019-11-20 18:00:00 20.6 16 Sudoeste 31 Sudoeste 0 -- -- 74
2019-11-20 17:00:00 21.7 20 Sudoeste 32 Sudoeste 0 -- -- 70
2019-11-20 16:00:00 22.6 20 Sudoeste 38 Sudoeste 0 -- -- 68
2019-11-20 15:00:00 23.2 22 Sudoeste 35 Sudoeste 0 -- -- 66
2019-11-20 14:00:00 22.7 24 Sudoeste 38 Sudoeste 0 -- -- 66
2019-11-20 13:00:00 22.8 23 Sudoeste 36 Sudoeste 0 -- -- 69
2019-11-20 12:00:00 22.8 22 Sudoeste 32 Sudoeste 0 -- -- 67
2019-11-20 11:00:00 22.3 15 Sudoeste 23 Sudoeste 0 -- -- 69
2019-11-20 10:00:00 21.6 15 Sudoeste 21 Sudoeste 0 -- -- 63
2019-11-20 09:00:00 20.3 3 Sur 7 Sur 0 -- -- 62
2019-11-20 08:00:00 15.6 6 Noroeste 8 Noroeste 0 -- -- 72
2019-11-20 07:00:00 15.2 7 Noroeste 9 Noroeste 0 -- -- 74
2019-11-20 06:00:00 15.5 7 Noroeste 10 Noroeste 0 -- -- 70
2019-11-20 05:00:00 15.7 7 Noroeste 10 Noroeste 0 -- -- 72
2019-11-20 04:00:00 15.8 6 Noroeste 9 Noroeste 0 -- -- 75
2019-11-20 03:00:00 15.9 6 Noroeste 10 Noroeste 0 -- -- 77
2019-11-20 02:00:00 16.2 6 Oeste 10 Oeste 0 -- -- 82
2019-11-20 01:00:00 16.6 7 Oeste 9 Noroeste 0 -- -- 81
2019-11-20 00:00:00 16.6 4 Noroeste 14 Oeste 0 -- -- 82
2019-11-19 23:00:00 18 8 Oeste 15 Sudoeste 0 -- -- 84
2019-11-19 22:00:00 17.5 5 Noroeste 10 Oeste 0 -- -- 81
2019-11-19 21:00:00 18.5 5 Noroeste 18 Sudoeste 0 -- -- 76
2019-11-19 20:00:00 19.3 12 Sudoeste 22 Sudoeste 0 -- -- 76
2019-11-19 19:00:00 19.7 14 Sudoeste 24 Sudoeste 0 -- -- 75
2019-11-19 18:00:00 20.3 17 Sudoeste 27 Sudoeste 0 -- -- 74
2019-11-19 17:00:00 21.5 13 Sudoeste 22 Sudoeste 0 -- -- 71
2019-11-19 16:00:00 22.2 12 Sur 24 Oeste 0 -- -- 69
2019-11-19 15:00:00 23.4 15 Sudoeste 22 Sudoeste 0 -- -- 64
2019-11-19 14:00:00 23.2 13 Sudoeste 26 Sudoeste 0 -- -- 64
2019-11-19 13:00:00 23 11 Norte 27 Nordeste 0 -- -- 63
2019-11-19 12:00:00 22 11 Sur 24 Sur 0 -- -- 67
2019-11-19 11:00:00 22.6 10 Sur 15 Sur 0 -- -- 56
2019-11-19 10:00:00 22 6 Sudoeste 9 Sudoeste 0 -- -- 56
2019-11-19 09:00:00 20.8 3 Sudeste 13 Nordeste 0 -- -- 56
2019-11-19 08:00:00 16.3 4 Noroeste 12 Nordeste 0 -- -- 66
2019-11-19 07:00:00 15 6 Noroeste 12 Noroeste 0 -- -- 70
2019-11-19 06:00:00 14.7 8 Noroeste 13 Noroeste 0 -- -- 72
2019-11-19 05:00:00 15.4 8 Noroeste 11 Noroeste 0 -- -- 70
2019-11-19 04:00:00 15.5 4 Noroeste 12 Sudoeste 0 -- -- 72
2019-11-19 03:00:00 16.4 7 Noroeste 10 Noroeste 0 -- -- 69
2019-11-19 02:00:00 18.6 8 Nordeste 15 Nordeste 0 -- -- 66
2019-11-19 01:00:00 17.1 6 Noroeste 10 Nordeste 0 -- -- 65
2019-11-19 00:00:00 17.6 7 Nordeste 22 Norte 0 -- -- 66
2019-11-18 23:00:00 18.3 12 Nordeste 25 Norte 0 -- -- 67
2019-11-18 22:00:00 18.6 15 Nordeste 28 Norte 0 -- -- 67
2019-11-18 21:00:00 18.7 15 Norte 24 Norte 0 -- -- 70
2019-11-18 20:00:00 18.4 13 Nordeste 27 Norte 0 -- -- 70
2019-11-18 19:00:00 18.8 15 Nordeste 29 Norte 0 -- -- 67
2019-11-18 18:00:00 19.4 14 Nordeste 36 Nordeste 0 -- -- 64
2019-11-18 17:00:00 19.9 23 Nordeste 41 Nordeste 0 -- -- 64
2019-11-18 16:00:00 21.3 21 Nordeste 42 Nordeste 0 -- -- 60
2019-11-18 15:00:00 21.5 27 Nordeste 47 Nordeste 0 -- -- 58
2019-11-18 14:00:00 22 24 Nordeste 45 Nordeste 0 -- -- 61
2019-11-18 13:00:00 22.3 25 Nordeste 44 Nordeste 0 -- -- 54
2019-11-18 12:00:00 21.5 26 Nordeste 44 Nordeste 0 -- -- 57
2019-11-18 11:00:00 21.1 24 Nordeste 43 Nordeste 0 -- -- 60
2019-11-18 10:00:00 20.2 24 Nordeste 39 Nordeste 0 -- -- 63
2019-11-18 09:00:00 19.1 21 Nordeste 37 Nordeste 0 -- -- 67
2019-11-18 08:00:00 17.7 17 Nordeste 33 Nordeste 0 -- -- 71
2019-11-18 07:00:00 17.5 23 Nordeste 37 Nordeste 0 -- -- 70
2019-11-18 06:00:00 17.6 22 Nordeste 41 Nordeste 0 -- -- 69
2019-11-18 05:00:00 17.6 23 Nordeste 48 Nordeste 0 -- -- 69
2019-11-18 04:00:00 17.7 24 Norte 44 Nordeste 0 -- -- 67
2019-11-18 03:00:00 17.7 24 Norte 46 Nordeste 0 -- -- 67
2019-11-18 02:00:00 17.4 24 Nordeste 41 Nordeste 0 -- -- 68
2019-11-18 01:00:00 17.7 25 Norte 46 Norte 0 -- -- 65
2019-11-18 00:00:00 17.6 20 Nordeste 39 Norte 0 -- -- 67
2019-11-17 23:00:00 17.8 19 Nordeste 36 Nordeste 0 -- -- 69
2019-11-17 22:00:00 17.9 19 Nordeste 41 Nordeste 0 -- -- 69
2019-11-17 21:00:00 18 18 Nordeste 40 Nordeste 0 -- -- 70
2019-11-17 20:00:00 18.2 19 Nordeste 36 Nordeste 0 -- -- 69
2019-11-17 19:00:00 18.4 19 Norte 37 Norte 0 -- -- 70
2019-11-17 18:00:00 18.4 21 Norte 39 Norte 0 -- -- 71
2019-11-17 17:00:00 19.5 20 Nordeste 41 Nordeste 0 -- -- 63
2019-11-17 16:00:00 19.7 23 Nordeste 44 Nordeste 0 -- -- 63
2019-11-17 15:00:00 19.8 22 Nordeste 42 Norte 0 -- -- 59
2019-11-17 14:00:00 19.2 24 Norte 47 Nordeste 0 -- -- 68
2019-11-17 13:00:00 20.3 24 Nordeste 39 Norte 0 -- -- 59
2019-11-17 12:00:00 20 23 Nordeste 46 Nordeste 0 -- -- 56
2019-11-17 11:00:00 18.6 16 Nordeste 44 Norte 0 -- -- 70
2019-11-17 10:00:00 18.4 22 Norte 45 Nordeste 0 -- -- 66
2019-11-17 09:00:00 18.5 16 Norte 30 Norte 0 -- -- 62
2019-11-17 08:00:00 17.1 18 Norte 31 Nordeste 0 -- -- 73
2019-11-17 07:00:00 16.9 15 Norte 34 Norte 0 -- -- 73
2019-11-17 06:00:00 17.7 17 Norte 29 Nordeste 0 -- -- 67
2019-11-17 05:00:00 18 19 Norte 39 Norte 0 -- -- 64
2019-11-17 04:00:00 18.2 18 Norte 39 Norte 0 -- -- 67
2019-11-17 03:00:00 17.6 15 Norte 35 Norte 0 -- -- 73
2019-11-17 02:00:00 17.9 13 Nordeste 33 Norte 0 -- -- 70
2019-11-17 01:00:00 18.2 20 Norte 38 Norte 0 -- -- 68
2019-11-17 00:00:00 17.8 23 Norte 38 Norte 0 -- -- 73
2019-11-16 23:00:00 18.3 24 Norte 42 Nordeste 0 -- -- 70
2019-11-16 22:00:00 18.6 23 Norte 40 Norte 0 -- -- 67
2019-11-16 21:00:00 18.8 26 Norte 45 Norte 0 -- -- 68
2019-11-16 20:00:00 18.7 24 Norte 51 Norte 0 -- -- 69
2019-11-16 19:00:00 19.4 24 Norte 45 Norte 0 -- -- 60
2019-11-16 18:00:00 19.4 29 Norte 52 Norte 0 -- -- 59
2019-11-16 17:00:00 21.4 25 Norte 52 Norte 0 -- -- 53
2019-11-16 16:00:00 21.6 32 Norte 54 Nordeste 0 -- -- 50
2019-11-16 15:00:00 21.3 36 Norte 56 Norte 0 -- -- 49
2019-11-16 14:00:00 22 31 Norte 53 Norte 0 -- -- 45
2019-11-16 13:00:00 22.2 31 Norte 53 Norte 0 -- -- 44
2019-11-16 12:00:00 21.6 30 Norte 53 Norte 0 -- -- 48
2019-11-16 11:00:00 20.8 33 Norte 52 Norte 0 -- -- 54
2019-11-16 10:00:00 20.4 26 Norte 43 Norte 0 -- -- 57
2019-11-16 09:00:00 18.9 25 Norte 40 Norte 0 -- -- 63
2019-11-16 08:00:00 17.2 19 Norte 38 Norte 0 -- -- 71
2019-11-16 07:00:00 17.4 17 Norte 35 Norte 0 -- -- 72
2019-11-16 06:00:00 17.7 19 Norte 40 Norte 0 -- -- 68
2019-11-16 05:00:00 17.7 19 Norte 40 Nordeste 0 -- -- 66
2019-11-16 04:00:00 17.1 20 Nordeste 44 Nordeste 0 -- -- 80
2019-11-16 03:00:00 17.1 19 Norte 38 Norte 0 -- -- 72
2019-11-16 02:00:00 17.5 19 Norte 36 Norte 0 -- -- 72
2019-11-16 01:00:00 16.5 19 Norte 39 Norte 0.2 -- -- 82
2019-11-16 00:00:00 17.5 18 Norte 48 Norte 0 -- -- 70
2019-11-15 23:00:00 18.4 21 Norte 33 Nordeste 0 -- -- 69
2019-11-15 22:00:00 18.3 23 Norte 34 Nordeste 0 -- -- 69
2019-11-15 21:00:00 17.3 22 Norte 39 Norte 0.2 -- -- 76
2019-11-15 20:00:00 18.8 21 Norte 40 Norte 0 -- -- 64
2019-11-15 19:00:00 18.8 17 Norte 40 Norte 0 -- -- 61
2019-11-15 18:00:00 19.1 22 Norte 46 Norte 0 -- -- 64
2019-11-15 17:00:00 20.1 28 Norte 49 Nordeste 0 -- -- 56
2019-11-15 16:00:00 19.2 24 Norte 42 Norte 0 -- -- 71
2019-11-15 15:00:00 20.6 24 Norte 43 Norte 0 -- -- 58
2019-11-15 14:00:00 19.2 24 Nordeste 45 Norte 0 -- -- 72
2019-11-15 13:00:00 19.7 24 Nordeste 48 Nordeste 0 -- -- 75
2019-11-15 12:00:00 20.3 29 Norte 46 Norte 0.2 -- -- 71
2019-11-15 11:00:00 19.5 21 Nordeste 44 Nordeste 0.6 -- -- 80
2019-11-15 10:00:00 20.4 26 Norte 41 Norte 0 -- -- 72
2019-11-15 09:00:00 19.1 18 Norte 36 Norte 0.6 -- -- 83
2019-11-15 08:00:00 18 27 Norte 40 Norte 0 -- -- 82
2019-11-15 07:00:00 19.8 21 Norte 36 Norte 0 -- -- 66
2019-11-15 06:00:00 19.7 18 Nordeste 40 Nordeste 0 -- -- 64
2019-11-15 05:00:00 19.6 23 Norte 37 Norte 0 -- -- 61
2019-11-15 04:00:00 19.3 24 Norte 48 Nordeste 0 -- -- 62
2019-11-15 03:00:00 19.1 29 Norte 49 Norte 0 -- -- 70
2019-11-15 02:00:00 19.6 25 Norte 47 Norte 0 -- -- 59
2019-11-15 01:00:00 19.5 25 Norte 64 Norte 0 -- -- 66
2019-11-15 00:00:00 19.4 30 Norte 54 Norte 0 -- -- 72
2019-11-14 23:00:00 19.8 27 Nordeste 46 Nordeste 0 -- -- 71
2019-11-14 22:00:00 20.1 24 Nordeste 43 Nordeste 0 -- -- 73
2019-11-14 21:00:00 20.2 22 Nordeste 38 Norte 0 -- -- 71
2019-11-14 20:00:00 20.2 21 Nordeste 41 Nordeste 0 -- -- 73
2019-11-14 19:00:00 20 21 Nordeste 45 Nordeste 0 -- -- 74
2019-11-14 18:00:00 20.4 24 Nordeste 46 Nordeste 0 -- -- 71
2019-11-14 17:00:00 21.2 23 Norte 45 Nordeste 0 -- -- 64
2019-11-14 16:00:00 21.8 25 Nordeste 52 Nordeste 0 -- -- 65
2019-11-14 15:00:00 22.1 26 Nordeste 52 Norte 0 -- -- 63
2019-11-14 14:00:00 22.4 27 Nordeste 49 Nordeste 0 -- -- 61
2019-11-14 13:00:00 22.8 30 Nordeste 52 Nordeste 0 -- -- 62
2019-11-14 12:00:00 23 25 Nordeste 49 Nordeste 0 -- -- 61
2019-11-14 11:00:00 22.2 29 Norte 45 Norte 0 -- -- 61
2019-11-14 10:00:00 21.7 21 Nordeste 46 Nordeste 0 -- -- 65
2019-11-14 09:00:00 20.8 22 Norte 41 Norte 0 -- -- 70
2019-11-14 08:00:00 20.1 19 Nordeste 42 Norte 0 -- -- 67
2019-11-14 07:00:00 19.9 24 Norte 41 Norte 0 -- -- 65
2019-11-14 06:00:00 19.7 23 Nordeste 44 Norte 0 -- -- 66
2019-11-14 05:00:00 19.7 23 Norte 51 Norte 0 -- -- 65
2019-11-14 04:00:00 19.7 24 Norte 49 Norte 0 -- -- 67
2019-11-14 03:00:00 19.6 21 Norte 46 Norte 0 -- -- 66
2019-11-14 02:00:00 19.6 30 Norte 52 Norte 0 -- -- 65
2019-11-14 01:00:00 19.9 28 Norte 53 Nordeste 0 -- -- 66
2019-11-14 00:00:00 19.8 30 Norte 53 Norte 0 -- -- 65
2019-11-13 23:00:00 19.9 30 Norte 48 Norte 0 -- -- 65
2019-11-13 22:00:00 19.9 25 Nordeste 50 Norte 0 -- -- 68
2019-11-13 21:00:00 20 31 Norte 62 Norte 0 -- -- 64
2019-11-13 20:00:00 20 35 Norte 56 Nordeste 0 -- -- 65
2019-11-13 19:00:00 20.3 34 Norte 54 Norte 0 -- -- 66
2019-11-13 18:00:00 20.7 32 Norte 56 Norte 0 -- -- 65
2019-11-13 17:00:00 22.1 36 Norte 58 Nordeste 0 -- -- 56
2019-11-13 16:00:00 22.2 36 Nordeste 59 Norte 0 -- -- 59
2019-11-13 15:00:00 23.2 34 Nordeste 60 Nordeste 0 -- -- 55
2019-11-13 14:00:00 23.1 41 Nordeste 65 Norte 0 -- -- 55
2019-11-13 13:00:00 23 39 Norte 67 Norte 0 -- -- 55
2019-11-13 12:00:00 23.2 42 Nordeste 67 Norte 0 -- -- 53
2019-11-13 11:00:00 22.8 38 Norte 63 Norte 0 -- -- 56
2019-11-13 10:00:00 21.8 35 Norte 57 Norte 0 -- -- 60
2019-11-13 09:00:00 20.9 41 Norte 61 Norte 0 -- -- 62
2019-11-13 08:00:00 20.4 36 Norte 58 Nordeste 0 -- -- 71
2019-11-13 07:00:00 20 35 Nordeste 57 Norte 0 -- -- 71
2019-11-13 06:00:00 20.1 27 Norte 62 Norte 0 -- -- 66
2019-11-13 05:00:00 20.5 35 Norte 57 Norte 0 -- -- 64
2019-11-13 04:00:00 21 32 Norte 64 Norte 0 -- -- 60
2019-11-13 03:00:00 21.6 38 Norte 57 Norte 0 -- -- 54
2019-11-13 02:00:00 21.6 37 Norte 60 Norte 0 -- -- 51
2019-11-13 01:00:00 21.6 39 Norte 65 Norte 0 -- -- 49
2019-11-13 00:00:00 21.8 37 Norte 67 Norte 0 -- -- 48
2019-11-12 23:00:00 21.1 32 Norte 62 Norte 0 -- -- 54
2019-11-12 22:00:00 21.3 33 Norte 60 Norte 0 -- -- 49
2019-11-12 21:00:00 21.1 31 Norte 63 Norte 0 -- -- 52
2019-11-12 20:00:00 20.9 33 Norte 55 Norte 0 -- -- 60
2019-11-12 19:00:00 21.5 30 Nordeste 53 Norte 0 -- -- 58
2019-11-12 18:00:00 22.3 33 Norte 68 Norte 0 -- -- 59
2019-11-12 17:00:00 22.5 40 Norte 65 Norte 0 -- -- 67
2019-11-12 16:00:00 23.8 42 Norte 64 Norte 0 -- -- 56
2019-11-12 15:00:00 24.3 39 Norte 63 Norte 0 -- -- 59
2019-11-12 14:00:00 23.9 42 Norte 59 Norte 0 -- -- 60
2019-11-12 13:00:00 22.8 36 Norte 57 Norte 0 -- -- 67
2019-11-12 12:00:00 23.9 39 Norte 63 Norte 0 -- -- 57
2019-11-12 11:00:00 22.8 41 Norte 60 Norte 0 -- -- 66
2019-11-12 10:00:00 21.7 28 Norte 50 Norte 0 -- -- 71
2019-11-12 09:00:00 20.8 30 Norte 59 Norte 0 -- -- 72
2019-11-12 08:00:00 21 35 Norte 57 Norte 0 -- -- 66
2019-11-12 07:00:00 20.7 37 Norte 61 Norte 0 -- -- 70
2019-11-12 06:00:00 20.3 35 Norte 54 Nordeste 0 -- -- 69
2019-11-12 05:00:00 20.8 30 Norte 60 Norte 0 -- -- 66
2019-11-12 04:00:00 20.3 39 Norte 58 Norte 0 -- -- 65
2019-11-12 03:00:00 20.2 37 Norte 58 Norte 0 -- -- 68
2019-11-12 02:00:00 20.5 38 Norte 61 Nordeste 0 -- -- 68
2019-11-12 01:00:00 20.4 36 Norte 61 Nordeste 0 -- -- 68
2019-11-12 00:00:00 20.5 42 Norte 66 Norte 0 -- -- 67